Cimetta, Switzerland
Current Conditions -  °F | °C
As of 6:50 PM on Sunday 25 Jan 2015 (Local Time) from LSZL Reporting Station
Clear Clear  
Wind Chill: 41°   Ceiling: Unl
Heat Index: 41°   Visibility: 6mi
Dew Point: 10°   Wind: 3mph
Humidity: 29%   Direction: NA
Pressure: 30.18"   Gusts: NA
Location:  46.2°N, 8.8°E
Report Text: LSZL 251750Z AUTO VRB03KT 9999NDV NCD 05/M12 Q1022 RMK BLU
Loading
Personal Weather Stations






























Interactive Weather Map New forecast layout! Learn more

10-Day Weather Forecast

Advertisements
Track Severe Weather on mobile